Time;durP1;ratioP1;P1;durP2;ratioP2;P2;SDS_P1;SDS_P2;PMS_P1;PMS_P2;Temp;Humidity;BMP_temperature;BMP_pressure;BME280_temperature;BME280_humidity;BME280_pressure;Samples;Min_cycle;Max_cycle;Signal;HPM_P1;HPM_P2
2021/05/07 07:11:35;;;;;;;;;;;;;;;11.79;56.57;99276.88;6200201;23;19982;-77
2021/05/07 07:14:03;;;;;;;;;;;;;;;11.78;56.69;99275.16;6218116;23;20279;-80
2021/05/07 07:16:29;;;;;;;;;;;;;;;11.78;56.74;99276.97;6219103;23;19930;-81
2021/05/07 07:18:57;;;;;;;;;;;;;;;11.79;56.60;99281.31;6217712;23;19986;-83
2021/05/07 07:21:24;;;;;;;;;;;;;;;11.78;56.35;99285.78;6192875;23;19956;-82
2021/05/07 07:23:49;;;;;;;;;;;;;;;11.79;56.60;99278.66;6223512;23;20252;-83
2021/05/07 07:26:21;;;;;;;;;;;;;;;11.79;56.31;99287.50;6197088;23;19938;-83
2021/05/07 07:28:53;;;;;;;;;;;;;;;11.79;56.17;99283.97;6195289;23;19937;-82
2021/05/07 07:31:20;;;;;;;;;;;;;;;11.81;56.23;99284.75;6223068;23;19908;-82
2021/05/07 07:33:46;;;;;;;;;;;;;;;11.81;56.22;99296.22;6222198;23;19991;-83
2021/05/07 07:36:14;;;;;;;;;;;;;;;11.81;56.29;99285.59;6196554;23;19916;-83
2021/05/07 07:38:40;;;;;;;;;;;;;;;11.80;56.30;99291.84;6195396;23;20317;-83
2021/05/07 07:41:08;;;;;;;;;;;;;;;11.81;56.25;99292.72;6194548;23;19908;-83
2021/05/07 07:43:34;;;;;;;;;;;;;;;11.82;56.06;99295.28;6222167;23;19939;-83
2021/05/07 07:46:00;;;;;;;;;;;;;;;11.83;56.15;99293.47;6196121;23;19915;-81
2021/05/07 07:48:27;;;;;;;;;;;;;;;11.82;55.99;99303.25;6221993;23;19916;-83
2021/05/07 07:50:53;;;;;;;;;;;;;;;11.84;56.05;99299.63;6219572;23;19907;-81
2021/05/07 07:53:20;;;;;;;;;;;;;;;13.32;59.55;99296.31;6216125;23;19916;-91
2021/05/07 07:55:47;;;;;;;;;;;;;;;13.17;53.72;99304.31;6187793;23;20230;-81
2021/05/07 07:58:13;;;;;;;;;;;;;;;12.68;56.34;99307.25;6211444;23;19981;-85
2021/05/07 08:00:38;;;;;;;;;;;;;;;12.40;56.63;99310.66;6213009;23;19951;-85
2021/05/07 08:03:04;;;;;;;;;;;;;;;12.24;56.86;99314.22;6212430;23;19943;-85
2021/05/07 08:05:32;;;;;;;;;;;;;;;12.27;57.66;99318.47;6213333;23;20141;-82
2021/05/07 08:08:04;;;;;;;;;;;;;;;12.40;57.00;99322.16;6214452;23;20273;-85
2021/05/07 08:10:29;;;;;;;;;;;;;;;12.28;57.22;99320.22;6213906;23;20176;-84
2021/05/07 08:12:55;;;;;;;;;;;;;;;12.21;57.20;99324.16;6185808;23;20193;-85
2021/05/07 08:15:21;;;;;;;;;;;;;;;12.17;56.31;99332.31;6213463;23;19911;-84
2021/05/07 08:17:49;;;;;;;;;;;;;;;12.15;56.51;99331.53;6187767;23;19927;-84
2021/05/07 08:20:16;;;;;;;;;;;;;;;12.13;56.16;99344.03;6187142;23;19912;-84
2021/05/07 08:22:42;;;;;;;;;;;;;;;12.10;56.48;99341.56;6187162;23;19942;-85
2021/05/07 08:25:10;;;;;;;;;;;;;;;12.11;56.19;99337.97;6213076;23;19957;-85
2021/05/07 08:27:36;;;;;;;;;;;;;;;12.10;56.44;99344.22;6186723;23;19924;-87
2021/05/07 08:30:06;;;;;;;;;;;;;;;12.10;55.96;99352.19;6213813;23;20278;-85
2021/05/07 08:32:31;;;;;;;;;;;;;;;12.10;56.00;99344.22;6184604;23;19935;-84
2021/05/07 08:35:01;;;;;;;;;;;;;;;12.09;55.76;99353.09;6211367;23;19912;-84
2021/05/07 08:37:26;;;;;;;;;;;;;;;12.09;55.68;99353.09;6212270;23;20202;-84
2021/05/07 08:39:52;;;;;;;;;;;;;;;12.10;55.56;99357.47;6212184;23;19943;-85
2021/05/07 08:42:21;;;;;;;;;;;;;;;12.10;55.26;99360.13;6184936;23;20285;-84
2021/05/07 08:44:51;;;;;;;;;;;;;;;12.09;55.42;99369.03;6185513;23;19986;-84
2021/05/07 08:47:23;;;;;;;;;;;;;;;12.08;55.51;99363.84;6211311;23;19912;-84
2021/05/07 08:49:51;;;;;;;;;;;;;;;12.11;55.68;99371.59;6186755;23;19919;-84
2021/05/07 08:52:20;;;;;;;;;;;;;;;12.09;55.63;99358.41;6183269;23;19970;-84
2021/05/07 08:54:47;;;;;;;;;;;;;;;12.09;55.74;99365.53;6185662;23;19979;-84
2021/05/07 08:57:13;;;;;;;;;;;;;;;12.07;55.57;99365.63;6185106;23;19999;-84
2021/05/07 08:59:40;;;;;;;;;;;;;;;12.09;55.68;99358.41;6207829;23;19927;-84
2021/05/07 09:02:08;;;;;;;;;;;;;;;12.09;55.61;99371.69;6210947;23;19911;-84
2021/05/07 09:04:36;;;;;;;;;;;;;;;12.10;55.74;99364.59;6212816;23;19915;-84
2021/05/07 09:09:34;;;;;;;;;;;;;;;12.08;55.31;99364.69;6214037;23;19923;-84
2021/05/07 09:12:03;;;;;;;;;;;;;;;12.08;55.54;99375.31;6211888;23;19916;-85
2021/05/07 09:14:28;;;;;;;;;;;;;;;12.10;55.31;99380.53;6186273;23;19912;-84
2021/05/07 09:16:58;;;;;;;;;;;;;;;12.10;55.37;99396.47;6212469;23;19920;-84
2021/05/07 09:19:27;;;;;;;;;;;;;;;12.10;55.29;99415.91;6188363;23;19975;-84
2021/05/07 09:21:59;;;;;;;;;;;;;;;12.09;55.49;99410.69;6212079;23;20316;-84
2021/05/07 09:24:31;;;;;;;;;;;;;;;12.09;55.26;99408.03;6184146;23;19912;-84
2021/05/07 09:27:00;;;;;;;;;;;;;;;12.10;55.32;99421.22;6184571;23;20307;-84
2021/05/07 09:29:30;;;;;;;;;;;;;;;12.09;55.53;99424.81;6211743;23;19924;-84
2021/05/07 09:31:56;;;;;;;;;;;;;;;12.10;55.05;99418.56;6211681;23;19996;-84
2021/05/07 09:34:35;;;;;;;;;;;;;;;12.07;55.68;99436.47;6185256;23;19912;-84
2021/05/07 09:37:22;;;;;;;;;;;;;;;12.07;55.49;99433.81;6210949;23;20236;-85
2021/05/07 09:39:51;;;;;;;;;;;;;;;12.10;55.74;99442.47;6209953;23;20308;-84
2021/05/07 09:42:24;;;;;;;;;;;;;;;12.10;55.61;99450.44;6211016;23;19919;-84
2021/05/07 09:44:51;;;;;;;;;;;;;;;12.09;55.65;99455.81;6210995;23;19945;-84
2021/05/07 09:47:18;;;;;;;;;;;;;;;12.08;55.61;99451.47;6211215;23;20297;-84
2021/05/07 09:49:47;;;;;;;;;;;;;;;12.07;55.61;99455.91;6211835;23;19920;-84
2021/05/07 09:52:13;;;;;;;;;;;;;;;12.06;55.70;99464.84;6185799;23;20240;-83
2021/05/07 09:54:48;;;;;;;;;;;;;;;12.07;55.86;99461.22;6210352;23;19983;-84
2021/05/07 09:57:15;;;;;;;;;;;;;;;12.08;55.54;99473.56;6211876;23;19922;-85
2021/05/07 09:59:40;;;;;;;;;;;;;;;12.07;55.68;99468.34;6213073;23;19920;-84
2021/05/07 10:02:07;;;;;;;;;;;;;;;12.09;55.65;99485.03;6216488;23;19922;-84
2021/05/07 10:04:33;;;;;;;;;;;;;;;12.09;55.38;99488.53;6190533;23;20391;-86
2021/05/07 10:07:07;;;;;;;;;;;;;;;12.10;55.61;99486.75;6210058;23;20220;-84
2021/05/07 10:09:36;;;;;;;;;;;;;;;12.08;55.07;99500.13;6214614;23;20255;-84
2021/05/07 10:12:08;;;;;;;;;;;;;;;12.06;55.69;99485.19;6213230;23;19923;-84
2021/05/07 10:14:42;;;;;;;;;;;;;;;12.04;55.49;99487.09;6187895;23;20333;-84
2021/05/07 10:17:09;;;;;;;;;;;;;;;12.04;54.94;99498.56;6185984;23;19923;-84
2021/05/07 10:19:42;;;;;;;;;;;;;;;12.05;55.41;99510.91;6213080;23;19995;-84
2021/05/07 10:22:10;;;;;;;;;;;;;;;12.06;55.48;99503.78;6213373;23;19946;-84
2021/05/07 10:24:39;;;;;;;;;;;;;;;12.07;55.53;99508.16;6186608;23;19986;-85
2021/05/07 10:27:18;;;;;;;;;;;;;;;12.07;55.51;99516.97;6212704;23;19912;-84
2021/05/07 10:30:04;;;;;;;;;;;;;;;12.09;55.21;99517.75;6213598;23;19920;-84
2021/05/07 10:32:32;;;;;;;;;;;;;;;12.05;54.96;99516.22;6213047;23;19981;-84
2021/05/07 10:34:58;;;;;;;;;;;;;;;12.07;55.22;99524.09;6213531;23;19930;-83
2021/05/07 10:37:39;;;;;;;;;;;;;;;12.06;55.32;99517.94;6187059;23;20002;-84
2021/05/07 10:40:06;;;;;;;;;;;;;;;12.07;55.34;99524.09;6212611;23;19950;-84
2021/05/07 10:42:33;;;;;;;;;;;;;;;12.07;55.14;99532.91;6211874;23;19912;-84
2021/05/07 10:45:00;;;;;;;;;;;;;;;12.05;54.85;99529.50;6213071;23;20335;-83
2021/05/07 10:47:37;;;;;;;;;;;;;;;12.07;54.82;99538.22;6213402;23;19919;-84
2021/05/07 10:50:18;;;;;;;;;;;;;;;12.06;55.34;99544.50;6186720;23;19916;-84
2021/05/07 10:52:45;;;;;;;;;;;;;;;12.07;55.06;99540.03;6186552;23;19924;-83
2021/05/07 10:55:15;;;;;;;;;;;;;;;12.07;54.77;99555.97;6188148;23;19927;-84
2021/05/07 10:57:44;;;;;;;;;;;;;;;12.08;54.95;99553.25;6186720;23;20220;-84
2021/05/07 11:00:16;;;;;;;;;;;;;;;12.07;55.25;99551.50;6187129;23;19916;-84
2021/05/07 11:02:48;;;;;;;;;;;;;;;12.06;55.01;99547.16;6187694;23;21174;-86
2021/05/07 11:05:33;;;;;;;;;;;;;;;12.07;54.78;99553.31;6186577;23;19990;-84
2021/05/07 11:07:59;;;;;;;;;;;;;;;12.03;55.12;99557.06;6212842;23;19943;-83
2021/05/07 11:10:36;;;;;;;;;;;;;;;12.04;54.92;99549.00;6188411;23;20263;-84
2021/05/07 11:13:02;;;;;;;;;;;;;;;12.05;55.23;99556.06;6187168;23;19915;-84
2021/05/07 11:15:28;;;;;;;;;;;;;;;12.05;55.03;99558.72;6212796;23;19927;-85
2021/05/07 11:17:58;;;;;;;;;;;;;;;12.05;55.01;99556.06;6211880;23;20203;-84
2021/05/07 11:20:33;;;;;;;;;;;;;;;12.05;54.94;99571.97;6213181;23;20019;-85
